createdAt,value
2022-08-27T00:00:28.378Z,20.73
2022-08-27T00:02:36.071Z,20.80
2022-08-27T00:04:43.898Z,20.84
2022-08-27T00:06:48.774Z,20.88
2022-08-27T00:08:54.951Z,20.87
2022-08-27T00:11:00.068Z,20.88
2022-08-27T00:13:04.823Z,20.79
2022-08-27T00:15:11.820Z,20.76
2022-08-27T00:17:22.674Z,20.77
2022-08-27T00:19:27.639Z,20.74
2022-08-27T00:21:35.643Z,20.78
2022-08-27T00:23:41.290Z,20.82
2022-08-27T00:25:46.154Z,20.85
2022-08-27T00:27:55.587Z,20.89
2022-08-27T00:30:00.604Z,20.94
2022-08-27T00:32:06.066Z,20.94
2022-08-27T00:34:12.967Z,20.95
2022-08-27T00:36:18.497Z,20.92
2022-08-27T00:38:26.625Z,20.91
2022-08-27T00:40:31.824Z,20.92
2022-08-27T00:42:36.963Z,20.85
2022-08-27T00:44:41.860Z,20.78
2022-08-27T00:46:52.560Z,20.74
2022-08-27T00:49:01.686Z,20.72
2022-08-27T00:51:08.942Z,20.68
2022-08-27T00:53:16.918Z,20.60
2022-08-27T00:55:28.679Z,20.60
2022-08-27T00:57:34.128Z,20.57
2022-08-27T00:59:39.621Z,20.61
2022-08-27T01:01:58.860Z,20.64
2022-08-27T01:04:07.202Z,20.71
2022-08-27T01:06:16.174Z,20.76
2022-08-27T01:08:23.868Z,20.78
2022-08-27T01:10:32.682Z,20.78
2022-08-27T01:12:38.633Z,20.83
2022-08-27T01:14:47.193Z,20.76
2022-08-27T01:16:56.179Z,20.72
2022-08-27T01:19:01.803Z,20.77
2022-08-27T01:21:15.515Z,20.84
2022-08-27T01:23:28.149Z,20.82
2022-08-27T01:25:36.012Z,20.75
2022-08-27T01:27:42.178Z,20.72
2022-08-27T01:29:47.990Z,20.65
2022-08-27T01:31:52.964Z,20.63
2022-08-27T01:34:00.455Z,20.57
2022-08-27T01:36:05.928Z,20.65
2022-08-27T01:38:18.298Z,20.74
2022-08-27T01:40:38.181Z,20.78
2022-08-27T01:42:45.729Z,20.80
2022-08-27T01:44:54.069Z,20.85
2022-08-27T01:46:58.986Z,20.87
2022-08-27T01:49:03.706Z,20.80
2022-08-27T01:51:09.887Z,20.79
2022-08-27T01:53:18.003Z,20.80
2022-08-27T01:55:25.411Z,20.76
2022-08-27T01:57:33.026Z,20.76
2022-08-27T01:59:39.598Z,20.71
2022-08-27T02:01:45.170Z,20.72
2022-08-27T02:03:50.371Z,20.70
2022-08-27T02:05:55.230Z,20.66
2022-08-27T02:08:00.704Z,20.63
2022-08-27T02:10:06.721Z,20.64
2022-08-27T02:12:12.009Z,20.65
2022-08-27T02:14:20.418Z,20.67
2022-08-27T02:16:25.449Z,20.65
2022-08-27T02:18:30.417Z,20.66
2022-08-27T02:20:35.497Z,20.68
2022-08-27T02:22:40.303Z,20.63
2022-08-27T02:24:45.222Z,20.64
2022-08-27T02:26:50.161Z,20.63
2022-08-27T02:28:55.362Z,20.66
2022-08-27T02:31:02.949Z,20.68
2022-08-27T02:33:08.457Z,20.66
2022-08-27T02:35:13.385Z,20.70
2022-08-27T02:37:18.630Z,20.71
2022-08-27T02:39:23.751Z,20.70
2022-08-27T02:41:28.583Z,20.74
2022-08-27T02:43:33.677Z,20.75
2022-08-27T02:45:40.864Z,20.74
2022-08-27T02:47:48.121Z,20.73
2022-08-27T02:49:53.002Z,20.75
2022-08-27T02:51:58.897Z,20.78
2022-08-27T02:54:04.105Z,20.82
2022-08-27T02:56:10.538Z,20.84
2022-08-27T02:58:17.012Z,20.83
2022-08-27T03:00:24.549Z,20.85
2022-08-27T03:02:29.528Z,20.86
2022-08-27T03:04:37.318Z,20.85
2022-08-27T03:06:42.379Z,20.83
2022-08-27T03:08:52.047Z,20.79
2022-08-27T03:10:58.037Z,20.78
2022-08-27T03:13:02.958Z,20.82
2022-08-27T03:15:09.627Z,20.84
2022-08-27T03:17:27.079Z,20.85
2022-08-27T03:19:32.127Z,20.86
2022-08-27T03:21:39.413Z,20.84
2022-08-27T03:23:44.335Z,20.79
2022-08-27T03:25:54.223Z,20.79
2022-08-27T03:27:59.099Z,20.77
2022-08-27T03:30:04.504Z,20.75
2022-08-27T03:32:10.086Z,20.75
2022-08-27T03:34:14.955Z,20.79
2022-08-27T03:36:26.239Z,20.84
2022-08-27T03:38:33.703Z,20.87
2022-08-27T03:40:38.700Z,20.85
2022-08-27T03:42:43.525Z,20.82
2022-08-27T03:44:48.384Z,20.81
2022-08-27T03:46:54.102Z,20.78
2022-08-27T03:48:59.168Z,20.79
2022-08-27T03:51:08.245Z,20.80
2022-08-27T03:53:13.806Z,20.80
2022-08-27T03:55:21.577Z,20.81
2022-08-27T03:57:26.522Z,20.74
2022-08-27T03:59:31.369Z,20.74
2022-08-27T04:01:36.798Z,20.75
2022-08-27T04:03:41.718Z,20.73
2022-08-27T04:05:46.965Z,20.72
2022-08-27T04:07:52.333Z,20.71
2022-08-27T04:09:57.228Z,20.69
2022-08-27T04:12:05.042Z,20.70
2022-08-27T04:14:23.463Z,20.71
2022-08-27T04:16:32.070Z,20.74
2022-08-27T04:18:37.175Z,20.75
2022-08-27T04:20:41.768Z,20.72
2022-08-27T04:22:46.595Z,20.71
2022-08-27T04:24:51.506Z,20.70
2022-08-27T04:26:56.386Z,20.71
2022-08-27T04:29:03.873Z,20.74
2022-08-27T04:31:16.685Z,20.73
2022-08-27T04:33:21.862Z,20.77
2022-08-27T04:35:26.716Z,20.77
2022-08-27T04:37:34.812Z,20.76
2022-08-27T04:39:39.838Z,20.67
2022-08-27T04:41:45.328Z,20.57
2022-08-27T04:43:51.737Z,20.52
2022-08-27T04:45:59.695Z,20.46
2022-08-27T04:48:04.538Z,20.42
2022-08-27T04:50:10.228Z,20.39
2022-08-27T04:52:15.677Z,20.32
2022-08-27T04:54:32.212Z,20.35
2022-08-27T04:56:38.603Z,20.34
2022-08-27T04:58:43.871Z,20.43
2022-08-27T05:00:51.349Z,20.53
2022-08-27T05:02:58.826Z,20.60
2022-08-27T05:05:03.756Z,20.65
2022-08-27T05:07:10.215Z,20.70
2022-08-27T05:09:16.063Z,20.72
2022-08-27T05:11:24.317Z,20.73
2022-08-27T05:13:30.102Z,20.74
2022-08-27T05:15:35.036Z,20.78
2022-08-27T05:17:39.791Z,20.74
2022-08-27T05:19:47.261Z,20.76
2022-08-27T05:21:54.512Z,20.76
2022-08-27T05:24:01.184Z,20.78
2022-08-27T05:26:06.310Z,20.76
2022-08-27T05:28:11.096Z,20.76
2022-08-27T05:30:16.539Z,20.80
2022-08-27T05:32:21.763Z,20.88
2022-08-27T05:34:27.243Z,20.90
2022-08-27T05:36:37.777Z,20.88
2022-08-27T05:38:53.032Z,20.91
2022-08-27T05:41:05.255Z,20.92
2022-08-27T05:43:10.833Z,20.85
2022-08-27T05:45:16.310Z,20.90
2022-08-27T05:47:21.280Z,20.89
2022-08-27T05:49:26.133Z,20.94
2022-08-27T05:51:36.483Z,21.02
2022-08-27T05:53:41.906Z,21.01
2022-08-27T05:55:47.929Z,21.08
2022-08-27T05:57:53.344Z,21.14
2022-08-27T06:00:15.736Z,21.20
2022-08-27T06:02:21.770Z,21.16
2022-08-27T06:04:28.227Z,21.11
2022-08-27T06:06:37.674Z,21.06
2022-08-27T06:08:42.623Z,20.97
2022-08-27T06:10:47.575Z,21.03
2022-08-27T06:12:56.758Z,21.10
2022-08-27T06:15:02.046Z,21.08
2022-08-27T06:17:07.403Z,21.07
2022-08-27T06:19:14.461Z,21.13
2022-08-27T06:21:24.866Z,21.20
2022-08-27T06:23:32.484Z,21.28
2022-08-27T06:25:37.313Z,21.31
2022-08-27T06:27:42.342Z,21.24
2022-08-27T06:29:48.522Z,21.23
2022-08-27T06:31:55.121Z,21.28
2022-08-27T06:34:07.353Z,21.27
2022-08-27T06:36:14.861Z,21.22
2022-08-27T06:38:19.712Z,21.23
2022-08-27T06:40:27.471Z,21.21
2022-08-27T06:42:32.386Z,21.30
2022-08-27T06:44:39.718Z,21.29
2022-08-27T06:46:45.625Z,21.33
2022-08-27T06:48:50.944Z,21.24
2022-08-27T06:50:56.268Z,21.22
2022-08-27T06:53:01.210Z,21.24
2022-08-27T06:55:06.900Z,21.31
2022-08-27T06:57:14.364Z,21.40
2022-08-27T06:59:21.401Z,21.32
2022-08-27T07:01:28.320Z,21.30
2022-08-27T07:03:35.242Z,21.29
2022-08-27T07:05:43.038Z,21.32
2022-08-27T07:07:48.924Z,21.33
2022-08-27T07:09:53.970Z,21.32
2022-08-27T07:11:58.816Z,21.34
2022-08-27T07:14:06.338Z,21.35
2022-08-27T07:16:15.604Z,21.32
2022-08-27T07:18:20.859Z,21.29
2022-08-27T07:20:33.162Z,21.31
2022-08-27T07:22:38.097Z,21.35
2022-08-27T07:24:43.191Z,21.41
2022-08-27T07:26:47.935Z,21.36
2022-08-27T07:28:53.642Z,21.40
2022-08-27T07:31:01.830Z,21.46
2022-08-27T07:33:07.118Z,21.59
2022-08-27T07:35:12.483Z,21.58
2022-08-27T07:37:17.467Z,21.61
2022-08-27T07:39:22.166Z,21.67
2022-08-27T07:41:30.308Z,21.73
2022-08-27T07:43:48.764Z,21.81
2022-08-27T07:45:56.413Z,21.82
2022-08-27T07:48:04.006Z,21.88
2022-08-27T07:50:10.330Z,21.89
2022-08-27T07:52:16.260Z,21.74
2022-08-27T07:54:21.515Z,21.83
2022-08-27T07:56:26.637Z,21.89
2022-08-27T07:58:31.225Z,21.97
2022-08-27T08:00:36.911Z,22.06
2022-08-27T08:02:45.064Z,22.14
2022-08-27T08:04:52.599Z,22.28
2022-08-27T08:06:58.468Z,22.26
2022-08-27T08:09:03.476Z,22.28
2022-08-27T08:11:08.882Z,22.35
2022-08-27T08:13:14.072Z,22.34
2022-08-27T08:15:20.177Z,22.25
2022-08-27T08:17:25.052Z,22.29
2022-08-27T08:19:32.101Z,22.34
2022-08-27T08:21:40.525Z,22.27
2022-08-27T08:23:45.698Z,22.20
2022-08-27T08:25:50.588Z,22.13
2022-08-27T08:27:55.754Z,22.08
2022-08-27T08:30:00.993Z,22.04
2022-08-27T08:32:06.332Z,21.98
2022-08-27T08:34:11.706Z,21.96
2022-08-27T08:36:20.952Z,22.01
2022-08-27T08:38:28.456Z,22.05
2022-08-27T08:40:37.655Z,22.21
2022-08-27T08:42:50.605Z,22.33
2022-08-27T08:44:57.926Z,22.46
2022-08-27T08:47:08.436Z,22.57
2022-08-27T08:49:20.940Z,22.63
2022-08-27T08:51:32.777Z,22.70
2022-08-27T08:53:47.610Z,22.70
2022-08-27T08:55:58.475Z,22.75
2022-08-27T08:58:15.285Z,22.83
2022-08-27T09:00:20.322Z,22.75
2022-08-27T09:02:25.014Z,22.75
2022-08-27T09:04:33.300Z,22.87
2022-08-27T09:06:44.289Z,23.00
2022-08-27T09:08:51.840Z,23.14
2022-08-27T09:11:07.338Z,23.40
2022-08-27T09:13:22.576Z,23.43
2022-08-27T09:15:31.783Z,23.58
2022-08-27T09:17:37.184Z,23.52
2022-08-27T09:19:43.029Z,23.65
2022-08-27T09:21:54.498Z,23.78
2022-08-27T09:24:09.656Z,23.77
2022-08-27T09:26:25.942Z,23.72
2022-08-27T09:28:44.782Z,23.74
2022-08-27T09:30:49.744Z,23.75
2022-08-27T09:32:58.277Z,23.56
2022-08-27T09:35:07.033Z,23.41
2022-08-27T09:37:17.216Z,23.45
2022-08-27T09:39:31.301Z,23.59
2022-08-27T09:41:48.392Z,23.66
2022-08-27T09:44:02.123Z,23.79
2022-08-27T09:46:19.775Z,23.96
2022-08-27T09:48:29.972Z,24.06
2022-08-27T09:50:43.589Z,24.09
2022-08-27T09:52:56.528Z,24.13
2022-08-27T09:55:05.433Z,24.23
2022-08-27T09:57:12.609Z,24.39
2022-08-27T09:59:27.040Z,24.65
2022-08-27T10:01:34.453Z,24.52
2022-08-27T10:03:39.354Z,24.51
2022-08-27T10:05:50.690Z,24.47
2022-08-27T10:08:00.727Z,24.28
2022-08-27T10:10:16.604Z,24.36
2022-08-27T10:12:28.394Z,24.44
2022-08-27T10:14:37.683Z,24.35
2022-08-27T10:16:59.147Z,24.43
2022-08-27T10:19:18.080Z,24.52
2022-08-27T10:21:28.022Z,24.69
2022-08-27T10:23:43.501Z,24.94
2022-08-27T10:25:55.563Z,24.88
2022-08-27T10:28:13.183Z,25.01
2022-08-27T10:30:22.122Z,25.34
2022-08-27T10:32:43.373Z,25.60
2022-08-27T10:35:10.528Z,25.51
2022-08-27T10:37:36.751Z,25.52
2022-08-27T10:40:04.614Z,25.49
2022-08-27T10:42:18.070Z,25.66
2022-08-27T10:44:41.565Z,25.61
2022-08-27T10:47:12.209Z,25.48
2022-08-27T10:49:23.636Z,25.34
2022-08-27T10:51:37.942Z,25.22
2022-08-27T10:53:53.449Z,24.81
2022-08-27T10:56:16.185Z,24.76
2022-08-27T10:58:51.247Z,24.79
2022-08-27T11:01:04.571Z,24.63
2022-08-27T11:03:13.731Z,24.58
2022-08-27T11:05:23.469Z,24.68
2022-08-27T11:07:33.761Z,24.95
2022-08-27T11:09:43.821Z,25.18
2022-08-27T11:12:13.182Z,25.58
2022-08-27T11:14:31.143Z,25.82
2022-08-27T11:16:44.806Z,25.77
2022-08-27T11:18:54.046Z,25.88
2022-08-27T11:21:04.482Z,25.97
2022-08-27T11:23:13.041Z,25.96
2022-08-27T11:25:34.180Z,26.08
2022-08-27T11:27:40.357Z,26.00
2022-08-27T11:30:00.387Z,26.01
2022-08-27T11:32:13.875Z,25.90
2022-08-27T11:34:25.782Z,25.97
2022-08-27T11:36:55.893Z,26.14
2022-08-27T11:39:07.322Z,26.30
2022-08-27T11:41:44.814Z,26.30
2022-08-27T11:43:50.902Z,26.34
2022-08-27T11:46:01.752Z,26.49
2022-08-27T11:48:20.744Z,26.37
2022-08-27T11:50:27.388Z,26.35
2022-08-27T11:52:35.786Z,26.48
2022-08-27T11:54:50.340Z,26.67
2022-08-27T11:56:55.379Z,26.89
2022-08-27T11:59:12.658Z,27.06
2022-08-27T12:01:29.895Z,27.17
2022-08-27T12:03:37.131Z,27.39
2022-08-27T12:05:45.583Z,27.43
2022-08-27T12:07:54.968Z,27.27
2022-08-27T12:10:19.786Z,27.35
2022-08-27T12:12:36.663Z,27.53
2022-08-27T12:14:48.665Z,27.64
2022-08-27T12:17:03.961Z,27.44
2022-08-27T12:19:23.501Z,27.39
2022-08-27T12:21:38.775Z,27.44
2022-08-27T12:23:47.078Z,27.01
2022-08-27T12:26:00.507Z,26.77
2022-08-27T12:28:09.462Z,26.69
2022-08-27T12:30:24.607Z,26.64
2022-08-27T12:32:35.004Z,26.93
2022-08-27T12:34:47.108Z,27.13
2022-08-27T12:36:53.748Z,27.16
2022-08-27T12:39:03.014Z,27.10
2022-08-27T12:41:09.419Z,27.03
2022-08-27T12:43:16.724Z,26.90
2022-08-27T12:45:24.479Z,26.34
2022-08-27T12:47:36.964Z,26.03
2022-08-27T12:49:53.815Z,25.90
2022-08-27T12:52:04.669Z,25.64
2022-08-27T12:54:28.866Z,25.53
2022-08-27T12:56:48.228Z,25.66
2022-08-27T12:59:04.752Z,25.88
2022-08-27T13:01:28.736Z,26.03
2022-08-27T13:03:41.284Z,26.17
2022-08-27T13:05:49.680Z,26.44
2022-08-27T13:07:57.042Z,26.66
2022-08-27T13:10:13.216Z,26.66
2022-08-27T13:12:21.430Z,26.58
2022-08-27T13:14:27.921Z,26.40
2022-08-27T13:16:35.139Z,26.17
2022-08-27T13:18:50.332Z,25.93
2022-08-27T13:21:05.090Z,25.77
2022-08-27T13:23:20.311Z,25.70
2022-08-27T13:25:27.585Z,25.40
2022-08-27T13:27:35.687Z,25.17
2022-08-27T13:29:41.306Z,25.02
2022-08-27T13:31:49.332Z,24.92
2022-08-27T13:33:58.738Z,25.00
2022-08-27T13:36:06.841Z,25.16
2022-08-27T13:38:12.662Z,25.36
2022-08-27T13:40:28.994Z,25.51
2022-08-27T13:42:34.179Z,25.35
2022-08-27T13:44:42.051Z,25.35
2022-08-27T13:46:56.380Z,25.52
2022-08-27T13:49:04.024Z,25.71
2022-08-27T13:51:10.012Z,25.80
2022-08-27T13:53:34.217Z,25.91
2022-08-27T13:55:41.173Z,25.85
2022-08-27T13:57:48.601Z,25.73
2022-08-27T13:59:53.529Z,25.68
2022-08-27T14:02:02.892Z,25.85
2022-08-27T14:04:12.777Z,25.96
2022-08-27T14:06:35.438Z,25.94
2022-08-27T14:08:40.610Z,26.08
2022-08-27T14:10:47.841Z,26.00
2022-08-27T14:13:00.993Z,26.05
2022-08-27T14:15:16.834Z,25.91
2022-08-27T14:17:29.385Z,25.99
2022-08-27T14:19:40.136Z,25.95
2022-08-27T14:21:46.085Z,25.87
2022-08-27T14:23:51.969Z,25.70
2022-08-27T14:26:00.219Z,26.02
2022-08-27T14:28:05.652Z,26.33
2022-08-27T14:30:13.083Z,26.57
2022-08-27T14:32:19.244Z,26.57
2022-08-27T14:34:25.210Z,26.52
2022-08-27T14:36:37.478Z,26.58
2022-08-27T14:38:46.665Z,26.47
2022-08-27T14:40:53.844Z,26.57
2022-08-27T14:42:59.615Z,26.72
2022-08-27T14:45:04.174Z,26.62
2022-08-27T14:47:10.283Z,26.43
2022-08-27T14:49:25.076Z,26.52
2022-08-27T14:51:37.097Z,26.69
2022-08-27T14:53:41.923Z,26.64
2022-08-27T14:55:46.872Z,26.51
2022-08-27T14:57:56.690Z,26.31
2022-08-27T15:00:01.340Z,26.15
2022-08-27T15:02:10.041Z,26.16
2022-08-27T15:04:15.510Z,26.03
2022-08-27T15:06:22.466Z,25.84
2022-08-27T15:08:32.075Z,25.60
2022-08-27T15:10:37.227Z,25.49
2022-08-27T15:12:43.122Z,25.36
2022-08-27T15:14:47.986Z,25.36
2022-08-27T15:16:53.708Z,25.43
2022-08-27T15:19:01.078Z,25.38
2022-08-27T15:21:06.562Z,25.37
2022-08-27T15:23:13.734Z,25.44
2022-08-27T15:25:22.062Z,25.49
2022-08-27T15:27:31.952Z,25.52
2022-08-27T15:29:43.577Z,25.43
2022-08-27T15:31:48.779Z,25.39
2022-08-27T15:33:53.734Z,25.34
2022-08-27T15:36:03.415Z,25.26
2022-08-27T15:38:08.946Z,25.11
2022-08-27T15:40:15.477Z,25.01
2022-08-27T15:42:23.688Z,25.20
2022-08-27T15:44:28.698Z,25.50
2022-08-27T15:46:33.600Z,25.64
2022-08-27T15:48:39.360Z,25.73
2022-08-27T15:50:45.508Z,25.85
2022-08-27T15:52:52.083Z,25.94
2022-08-27T15:54:57.070Z,25.97
2022-08-27T15:57:02.529Z,25.74
2022-08-27T15:59:10.089Z,25.62
2022-08-27T16:01:18.581Z,25.68
2022-08-27T16:03:26.178Z,25.57
2022-08-27T16:05:43.417Z,25.43
2022-08-27T16:07:48.532Z,25.39
2022-08-27T16:09:53.968Z,25.38
2022-08-27T16:11:58.956Z,25.23
2022-08-27T16:14:04.029Z,25.18
2022-08-27T16:16:11.707Z,25.02
2022-08-27T16:18:17.003Z,24.85
2022-08-27T16:20:25.649Z,24.79
2022-08-27T16:22:30.753Z,24.81
2022-08-27T16:24:36.270Z,24.80
2022-08-27T16:26:41.890Z,24.96
2022-08-27T16:28:47.008Z,25.13
2022-08-27T16:30:54.819Z,25.29
2022-08-27T16:33:02.470Z,25.34
2022-08-27T16:35:08.843Z,25.20
2022-08-27T16:37:14.720Z,25.09
2022-08-27T16:39:19.604Z,25.02
2022-08-27T16:41:24.283Z,24.94
2022-08-27T16:43:30.855Z,24.76
2022-08-27T16:45:35.879Z,24.68
2022-08-27T16:48:01.064Z,24.39
2022-08-27T16:50:26.092Z,24.07
2022-08-27T16:52:31.909Z,23.89
2022-08-27T16:54:37.856Z,23.65
2022-08-27T16:56:43.600Z,23.54
2022-08-27T16:58:53.296Z,23.53
2022-08-27T17:01:01.047Z,23.37
2022-08-27T17:03:05.963Z,23.33
2022-08-27T17:07:38.650Z,23.08
2022-08-27T17:09:44.264Z,22.99
2022-08-27T17:11:54.850Z,22.91
2022-08-27T17:14:02.782Z,22.87
2022-08-27T17:16:08.272Z,22.82
2022-08-27T17:18:13.714Z,22.71
2022-08-27T17:20:21.950Z,22.64
2022-08-27T17:22:27.598Z,22.60
2022-08-27T17:24:32.452Z,22.65
2022-08-27T17:26:37.399Z,22.68
2022-08-27T17:28:43.549Z,22.70
2022-08-27T17:30:48.675Z,22.70
2022-08-27T17:32:53.815Z,22.74
2022-08-27T17:35:05.120Z,22.79
2022-08-27T17:37:14.079Z,22.87
2022-08-27T17:39:19.623Z,22.90
2022-08-27T17:41:33.656Z,22.92
2022-08-27T17:43:40.212Z,22.94
2022-08-27T17:45:45.415Z,22.98
2022-08-27T17:47:50.182Z,22.91
2022-08-27T17:49:55.337Z,22.80
2022-08-27T17:52:02.779Z,22.78
2022-08-27T17:54:21.993Z,22.78
2022-08-27T17:56:27.412Z,22.76
2022-08-27T17:58:32.902Z,22.73
2022-08-27T18:00:38.655Z,22.70
2022-08-27T18:02:47.502Z,22.70
2022-08-27T18:04:53.109Z,22.64
2022-08-27T18:06:58.250Z,22.67
2022-08-27T18:09:03.007Z,22.57
2022-08-27T18:11:10.995Z,22.64
2022-08-27T18:13:16.639Z,22.60
2022-08-27T18:15:24.368Z,22.63
2022-08-27T18:17:29.358Z,22.62
2022-08-27T18:19:37.825Z,22.60
2022-08-27T18:21:46.511Z,22.56
2022-08-27T18:23:53.201Z,22.54
2022-08-27T18:25:59.657Z,22.54
2022-08-27T18:28:09.386Z,22.54
2022-08-27T18:30:16.408Z,22.58
2022-08-27T18:32:21.346Z,22.63
2022-08-27T18:34:26.180Z,22.72
2022-08-27T18:36:31.555Z,22.75
2022-08-27T18:38:36.468Z,22.76
2022-08-27T18:40:44.635Z,22.75
2022-08-27T18:42:49.855Z,22.79
2022-08-27T18:44:57.676Z,22.86
2022-08-27T18:47:02.539Z,22.81
2022-08-27T18:49:07.816Z,22.85
2022-08-27T18:51:15.480Z,22.82
2022-08-27T18:53:22.158Z,22.80
2022-08-27T18:55:30.379Z,22.81
2022-08-27T18:57:35.307Z,22.78
2022-08-27T18:59:40.314Z,22.70
2022-08-27T19:01:48.223Z,22.72
2022-08-27T19:03:54.972Z,22.70
2022-08-27T19:06:00.632Z,22.64
2022-08-27T19:08:06.893Z,22.47
2022-08-27T19:10:12.596Z,22.55
2022-08-27T19:12:18.263Z,22.58
2022-08-27T19:14:23.108Z,22.52
2022-08-27T19:16:36.020Z,22.54
2022-08-27T19:18:44.669Z,22.49
2022-08-27T19:20:49.518Z,22.31
2022-08-27T19:22:54.433Z,22.27
2022-08-27T19:24:59.521Z,22.29
2022-08-27T19:27:04.193Z,22.28
2022-08-27T19:29:09.308Z,22.25
2022-08-27T19:31:14.396Z,22.22
2022-08-27T19:33:19.414Z,22.16
2022-08-27T19:35:27.085Z,22.17
2022-08-27T19:37:34.052Z,22.20
2022-08-27T19:39:40.181Z,22.27
2022-08-27T19:41:45.145Z,22.29
2022-08-27T19:43:50.060Z,22.34
2022-08-27T19:45:55.516Z,22.31
2022-08-27T19:48:02.271Z,22.35
2022-08-27T19:50:08.269Z,22.40
2022-08-27T19:52:16.141Z,22.42
2022-08-27T19:54:21.649Z,22.38
2022-08-27T19:56:28.885Z,22.42
2022-08-27T19:58:33.835Z,22.43
2022-08-27T20:00:38.767Z,22.42
2022-08-27T20:02:44.858Z,22.32
2022-08-27T20:05:14.373Z,22.28
2022-08-27T20:07:17.236Z,22.28
2022-08-27T20:09:25.667Z,22.27
2022-08-27T20:11:30.473Z,22.24
2022-08-27T20:13:35.453Z,22.25
2022-08-27T20:15:43.273Z,22.28
2022-08-27T20:17:51.502Z,22.29
2022-08-27T20:19:56.684Z,22.28
2022-08-27T20:22:01.562Z,22.26
2022-08-27T20:24:09.711Z,22.21
2022-08-27T20:26:14.610Z,22.28
2022-08-27T20:28:37.793Z,22.30
2022-08-27T20:30:43.568Z,22.32
2022-08-27T20:32:53.641Z,22.33
2022-08-27T20:34:59.409Z,22.31
2022-08-27T20:37:05.403Z,22.31
2022-08-27T20:39:12.818Z,22.28
2022-08-27T20:41:17.688Z,22.28
2022-08-27T20:43:22.620Z,22.26
2022-08-27T20:45:27.875Z,22.16
2022-08-27T20:47:35.293Z,22.19
2022-08-27T20:49:41.630Z,22.19
2022-08-27T20:51:51.242Z,22.19
2022-08-27T20:54:07.615Z,22.13
2022-08-27T20:56:15.098Z,22.14
2022-08-27T20:58:32.604Z,22.12
2022-08-27T21:00:40.381Z,22.14
2022-08-27T21:02:46.619Z,22.19
2022-08-27T21:04:52.136Z,22.17
2022-08-27T21:06:56.983Z,22.18
2022-08-27T21:09:01.939Z,22.16
2022-08-27T21:11:15.732Z,22.15
2022-08-27T21:13:22.814Z,22.14
2022-08-27T21:15:27.779Z,22.22
2022-08-27T21:17:32.661Z,22.24
2022-08-27T21:19:38.193Z,22.22
2022-08-27T21:21:43.162Z,22.19
2022-08-27T21:23:48.909Z,22.14
2022-08-27T21:25:53.757Z,22.14
2022-08-27T21:28:03.621Z,22.12
2022-08-27T21:30:10.986Z,22.11
2022-08-27T21:32:16.788Z,22.10
2022-08-27T21:34:21.734Z,22.12
2022-08-27T21:36:26.388Z,22.09
2022-08-27T21:38:31.833Z,22.07
2022-08-27T21:40:36.727Z,22.09
2022-08-27T21:42:42.001Z,22.09
2022-08-27T21:44:49.520Z,22.12
2022-08-27T21:46:54.431Z,22.10
2022-08-27T21:48:59.319Z,22.07
2022-08-27T21:51:10.548Z,22.01
2022-08-27T21:53:17.042Z,21.93
2022-08-27T21:55:22.117Z,21.97
2022-08-27T21:57:27.018Z,21.97
2022-08-27T21:59:32.136Z,21.96
2022-08-27T22:01:39.481Z,21.91
2022-08-27T22:03:47.022Z,21.76
2022-08-27T22:05:53.221Z,21.76
2022-08-27T22:07:58.105Z,21.79
2022-08-27T22:10:03.199Z,21.79
2022-08-27T22:12:08.349Z,21.79
2022-08-27T22:14:13.294Z,21.81
2022-08-27T22:16:18.323Z,21.73
2022-08-27T22:18:26.093Z,21.78
2022-08-27T22:20:33.118Z,21.78
2022-08-27T22:22:38.310Z,21.78
2022-08-27T22:24:43.183Z,21.79
2022-08-27T22:26:48.106Z,21.75
2022-08-27T22:28:53.173Z,21.78
2022-08-27T22:30:57.962Z,21.79
2022-08-27T22:33:03.756Z,21.78
2022-08-27T22:35:13.144Z,21.81
2022-08-27T22:37:18.062Z,21.77
2022-08-27T22:39:24.051Z,21.74
2022-08-27T22:41:30.282Z,21.72
2022-08-27T22:43:37.642Z,21.76
2022-08-27T22:45:42.210Z,21.71
2022-08-27T22:47:47.101Z,21.65
2022-08-27T22:49:52.768Z,21.59
2022-08-27T22:52:00.685Z,21.58
2022-08-27T22:54:05.551Z,21.56
2022-08-27T22:56:10.471Z,21.56
2022-08-27T22:58:16.281Z,21.53
2022-08-27T23:00:26.209Z,21.55
2022-08-27T23:02:31.305Z,21.59
2022-08-27T23:04:54.073Z,21.57
2022-08-27T23:07:04.171Z,21.57
2022-08-27T23:09:09.070Z,21.56
2022-08-27T23:11:13.979Z,21.50
2022-08-27T23:13:18.849Z,21.43
2022-08-27T23:15:25.972Z,21.50
2022-08-27T23:17:30.835Z,21.46
2022-08-27T23:19:35.674Z,21.40
2022-08-27T23:21:40.453Z,21.34
2022-08-27T23:23:47.999Z,21.31
2022-08-27T23:26:05.264Z,21.31
2022-08-27T23:28:14.446Z,21.28
2022-08-27T23:30:20.666Z,21.29
2022-08-27T23:32:27.526Z,21.28
2022-08-27T23:34:32.538Z,21.30
2022-08-27T23:36:38.393Z,21.28
2022-08-27T23:38:43.302Z,21.31
2022-08-27T23:40:52.313Z,21.21
2022-08-27T23:42:58.018Z,21.24
2022-08-27T23:45:02.891Z,21.18
2022-08-27T23:47:07.779Z,21.22
2022-08-27T23:49:12.636Z,21.15
2022-08-27T23:51:17.543Z,21.20
2022-08-27T23:53:22.614Z,21.09
2022-08-27T23:55:27.279Z,21.09
2022-08-27T23:57:34.814Z,21.07
2022-08-27T23:59:39.649Z,21.00
